createdAt,value
2019-06-08T00:00:18.428Z,14.20
2019-06-08T00:02:47.116Z,14.10
2019-06-08T00:05:16.874Z,14.10
2019-06-08T00:07:45.579Z,14.20
2019-06-08T00:10:15.035Z,14.20
2019-06-08T00:12:43.597Z,14.10
2019-06-08T00:15:14.035Z,14.10
2019-06-08T00:17:43.039Z,14.00
2019-06-08T00:20:13.667Z,14.00
2019-06-08T00:22:42.538Z,13.90
2019-06-08T00:25:13.703Z,13.80
2019-06-08T00:27:42.394Z,13.90
2019-06-08T00:30:11.224Z,13.80
2019-06-08T00:32:40.371Z,13.70
2019-06-08T00:35:10.068Z,13.60
2019-06-08T00:37:38.654Z,13.50
2019-06-08T00:40:08.518Z,13.40
2019-06-08T00:42:37.571Z,13.50
2019-06-08T00:45:09.939Z,13.60
2019-06-08T00:47:47.637Z,13.50
2019-06-08T00:50:11.911Z,13.50
2019-06-08T00:52:40.575Z,13.50
2019-06-08T00:55:09.531Z,13.50
2019-06-08T00:57:38.258Z,13.40
2019-06-08T01:00:10.735Z,13.40
2019-06-08T01:02:37.863Z,13.30
2019-06-08T01:05:08.141Z,13.30
2019-06-08T01:07:36.932Z,13.20
2019-06-08T01:10:07.770Z,13.20
2019-06-08T01:12:36.570Z,13.00
2019-06-08T01:15:09.332Z,13.00
2019-06-08T01:17:38.159Z,13.00
2019-06-08T01:20:07.797Z,13.10
2019-06-08T01:22:36.810Z,13.10
2019-06-08T01:25:06.711Z,13.10
2019-06-08T01:27:35.353Z,13.10
2019-06-08T01:30:06.648Z,13.20
2019-06-08T01:32:35.274Z,13.20
2019-06-08T01:35:04.975Z,13.20
2019-06-08T01:37:33.845Z,13.50
2019-06-08T01:40:02.517Z,13.60
2019-06-08T01:42:31.879Z,13.70
2019-06-08T01:45:00.609Z,13.80
2019-06-08T01:47:30.347Z,13.90
2019-06-08T01:50:00.506Z,14.00
2019-06-08T01:52:28.990Z,14.00
2019-06-08T01:54:58.014Z,14.10
2019-06-08T01:57:27.187Z,14.30
2019-06-08T01:59:56.083Z,14.30
2019-06-08T02:02:25.918Z,14.30
2019-06-08T02:04:54.688Z,14.30
2019-06-08T02:07:24.231Z,14.30
2019-06-08T02:09:52.906Z,14.40
2019-06-08T02:12:21.495Z,14.50
2019-06-08T02:14:50.127Z,14.50
2019-06-08T02:17:18.728Z,14.50
2019-06-08T02:19:47.430Z,14.50
2019-06-08T02:22:16.426Z,14.50
2019-06-08T02:24:45.055Z,14.50
2019-06-08T02:27:13.743Z,14.50
2019-06-08T02:29:42.401Z,14.40
2019-06-08T02:32:11.468Z,14.30
2019-06-08T02:34:40.703Z,14.20
2019-06-08T02:37:09.419Z,14.10
2019-06-08T02:39:39.960Z,14.00
2019-06-08T02:42:08.836Z,14.10
2019-06-08T02:44:37.877Z,14.10
2019-06-08T02:47:06.486Z,14.10
2019-06-08T02:49:35.488Z,14.10
2019-06-08T02:52:04.711Z,14.10
2019-06-08T02:54:35.427Z,14.10
2019-06-08T02:57:05.062Z,14.00
2019-06-08T02:59:40.377Z,13.90
2019-06-08T03:02:08.758Z,13.90
2019-06-08T03:04:41.091Z,13.80
2019-06-08T03:07:10.814Z,13.80
2019-06-08T03:09:41.084Z,13.70
2019-06-08T03:12:10.043Z,13.70
2019-06-08T03:14:42.085Z,13.70
2019-06-08T03:17:10.882Z,13.70
2019-06-08T03:19:39.983Z,13.70
2019-06-08T03:22:10.977Z,13.70
2019-06-08T03:24:41.243Z,13.70
2019-06-08T03:27:10.504Z,13.70
2019-06-08T03:29:41.322Z,13.70
2019-06-08T03:32:09.790Z,13.50
2019-06-08T03:34:45.806Z,13.50
2019-06-08T03:37:08.728Z,13.40
2019-06-08T03:39:38.810Z,13.40
2019-06-08T03:42:07.719Z,13.40
2019-06-08T03:44:36.317Z,13.40
2019-06-08T03:47:05.012Z,13.50
2019-06-08T03:49:42.868Z,13.60
2019-06-08T03:52:03.897Z,13.50
2019-06-08T03:54:32.514Z,13.50
2019-06-08T03:57:01.107Z,13.50
2019-06-08T03:59:29.695Z,13.70
2019-06-08T04:01:58.384Z,13.80
2019-06-08T04:04:26.968Z,13.80
2019-06-08T04:06:55.527Z,13.90
2019-06-08T04:09:24.499Z,13.90
2019-06-08T04:11:53.131Z,13.90
2019-06-08T04:14:21.687Z,13.90
2019-06-08T04:16:50.420Z,13.90
2019-06-08T04:19:19.543Z,13.90
2019-06-08T04:21:48.100Z,13.90
2019-06-08T04:24:17.021Z,14.00
2019-06-08T04:26:47.162Z,14.00
2019-06-08T04:29:16.000Z,14.00
2019-06-08T04:31:46.009Z,14.00
2019-06-08T04:34:14.699Z,14.00
2019-06-08T04:36:45.656Z,14.00
2019-06-08T04:39:14.231Z,14.00
2019-06-08T04:41:44.848Z,14.00
2019-06-08T04:44:13.207Z,14.00
2019-06-08T04:46:43.261Z,14.00
2019-06-08T04:49:12.134Z,14.10
2019-06-08T04:51:40.912Z,14.20
2019-06-08T04:54:14.081Z,14.20
2019-06-08T04:56:40.938Z,14.20
2019-06-08T04:59:09.788Z,14.20
2019-06-08T05:01:38.883Z,14.20
2019-06-08T05:04:08.064Z,14.30
2019-06-08T05:06:37.056Z,14.50
2019-06-08T05:09:07.984Z,14.50
2019-06-08T05:11:36.992Z,14.50
2019-06-08T05:14:06.291Z,14.50
2019-06-08T05:16:34.851Z,14.70
2019-06-08T05:19:03.415Z,14.80
2019-06-08T05:21:31.991Z,14.70
2019-06-08T05:24:00.559Z,14.70
2019-06-08T05:26:29.507Z,14.80
2019-06-08T05:28:58.243Z,15.00
2019-06-08T05:31:27.187Z,15.00
2019-06-08T05:33:55.852Z,14.90
2019-06-08T05:36:24.471Z,14.90
2019-06-08T05:38:53.159Z,15.10
2019-06-08T05:41:24.085Z,15.00
2019-06-08T05:43:52.130Z,15.10
2019-06-08T05:46:21.039Z,15.00
2019-06-08T05:49:09.039Z,15.00
2019-06-08T05:51:37.671Z,15.00
2019-06-08T05:54:06.254Z,15.20
2019-06-08T05:56:34.927Z,15.30
2019-06-08T05:59:03.502Z,15.40
2019-06-08T06:01:32.083Z,15.50
2019-06-08T06:04:01.188Z,15.50
2019-06-08T06:06:30.093Z,15.30
2019-06-08T06:08:58.635Z,15.40
2019-06-08T06:11:27.423Z,15.70
2019-06-08T06:13:57.715Z,16.10
2019-06-08T06:16:26.377Z,16.40
2019-06-08T06:18:55.081Z,16.10
2019-06-08T06:21:26.310Z,15.90
2019-06-08T06:23:55.179Z,15.90
2019-06-08T06:26:23.811Z,15.90
2019-06-08T06:28:52.535Z,16.00
2019-06-08T06:31:21.317Z,16.30
2019-06-08T06:33:50.147Z,16.40
2019-06-08T06:36:18.815Z,16.80
2019-06-08T06:38:48.115Z,17.30
2019-06-08T06:41:17.762Z,17.60
2019-06-08T06:43:48.045Z,17.70
2019-06-08T06:46:17.040Z,17.70
2019-06-08T06:48:46.131Z,17.50
2019-06-08T06:51:25.787Z,17.30
2019-06-08T06:53:47.044Z,16.90
2019-06-08T06:56:15.451Z,16.80
2019-06-08T06:58:45.080Z,16.60
2019-06-08T07:01:14.160Z,16.60
2019-06-08T07:03:44.113Z,16.50
2019-06-08T07:06:13.271Z,16.40
2019-06-08T07:08:42.201Z,16.30
2019-06-08T07:11:11.259Z,16.30
2019-06-08T07:13:39.886Z,16.20
2019-06-08T07:16:18.637Z,16.30
2019-06-08T07:18:39.351Z,16.30
2019-06-08T07:21:08.210Z,16.20
2019-06-08T07:23:36.867Z,16.20
2019-06-08T07:26:05.570Z,16.10
2019-06-08T07:28:34.512Z,16.20
2019-06-08T07:31:03.078Z,16.20
2019-06-08T07:33:31.667Z,16.30
2019-06-08T07:36:00.675Z,16.40
2019-06-08T07:38:29.663Z,16.70
2019-06-08T07:40:59.981Z,17.50
2019-06-08T07:43:28.539Z,18.00
2019-06-08T07:45:58.447Z,18.40
2019-06-08T07:48:27.681Z,18.30
2019-06-08T07:50:56.494Z,17.70
2019-06-08T07:53:25.162Z,17.30
2019-06-08T07:55:54.030Z,17.00
2019-06-08T07:58:22.594Z,16.60
2019-06-08T08:00:52.997Z,16.50
2019-06-08T08:03:21.518Z,16.40
2019-06-08T08:05:50.527Z,16.10
2019-06-08T08:08:19.142Z,15.90
2019-06-08T08:10:48.332Z,15.70
2019-06-08T08:13:17.005Z,15.80
2019-06-08T08:15:45.855Z,15.90
2019-06-08T08:18:14.873Z,15.90
2019-06-08T08:20:43.998Z,16.10
2019-06-08T08:23:12.643Z,16.20
2019-06-08T08:25:41.354Z,16.20
2019-06-08T08:28:10.439Z,16.20
2019-06-08T08:30:39.440Z,16.40
2019-06-08T08:33:08.396Z,16.50
2019-06-08T08:35:38.106Z,16.70
2019-06-08T08:38:07.535Z,17.20
2019-06-08T08:40:38.583Z,17.50
2019-06-08T08:43:09.186Z,17.60
2019-06-08T08:45:37.379Z,17.20
2019-06-08T08:48:21.460Z,16.90
2019-06-08T08:50:38.283Z,16.80
2019-06-08T08:53:08.354Z,16.60
2019-06-08T08:55:37.948Z,16.40
2019-06-08T08:58:08.367Z,16.30
2019-06-08T09:00:38.284Z,16.20
2019-06-08T09:03:22.026Z,16.10
2019-06-08T09:05:38.245Z,16.20
2019-06-08T09:08:08.734Z,16.20
2019-06-08T09:10:38.273Z,16.40
2019-06-08T09:13:09.281Z,16.70
2019-06-08T09:15:37.883Z,17.10
2019-06-08T09:18:08.117Z,17.40
2019-06-08T09:20:38.033Z,17.60
2019-06-08T09:23:15.722Z,17.70
2019-06-08T09:25:37.481Z,17.90
2019-06-08T09:28:08.403Z,18.00
2019-06-08T09:30:38.515Z,18.20
2019-06-08T09:33:08.008Z,18.60
2019-06-08T09:35:37.896Z,18.70
2019-06-08T09:38:08.552Z,18.70
2019-06-08T09:40:38.614Z,18.80
2019-06-08T09:43:12.361Z,19.00
2019-06-08T09:45:38.262Z,18.80
2019-06-08T09:48:09.271Z,18.90
2019-06-08T09:50:38.575Z,18.90
2019-06-08T09:53:23.118Z,18.90
2019-06-08T09:55:41.128Z,18.60
2019-06-08T09:58:11.715Z,18.30
2019-06-08T10:00:38.995Z,18.20
2019-06-08T10:03:09.346Z,18.70
2019-06-08T10:05:38.824Z,19.00
2019-06-08T10:08:09.565Z,19.40
2019-06-08T10:10:37.885Z,19.40
2019-06-08T10:13:09.504Z,19.00
2019-06-08T10:15:38.746Z,18.50
2019-06-08T10:18:08.260Z,18.00
2019-06-08T10:20:38.371Z,18.00
2019-06-08T10:23:26.816Z,18.50
2019-06-08T10:25:38.509Z,19.00
2019-06-08T10:28:13.550Z,19.20
2019-06-08T10:30:38.426Z,19.20
2019-06-08T10:33:09.979Z,19.20
2019-06-08T10:35:38.277Z,18.90
2019-06-08T10:38:11.725Z,18.90
2019-06-08T10:40:39.316Z,18.80
2019-06-08T10:43:09.883Z,18.50
2019-06-08T10:45:38.259Z,18.30
2019-06-08T10:48:06.967Z,18.10
2019-06-08T10:50:35.586Z,17.80
2019-06-08T10:53:06.526Z,17.70
2019-06-08T10:55:34.786Z,17.70
2019-06-08T10:58:04.486Z,17.90
2019-06-08T11:00:33.318Z,18.30
2019-06-08T11:03:03.512Z,18.90
2019-06-08T11:05:32.251Z,20.30
2019-06-08T11:08:02.569Z,21.90
2019-06-08T11:10:31.603Z,22.50
2019-06-08T11:13:05.213Z,22.40
2019-06-08T11:15:31.212Z,21.40
2019-06-08T11:18:02.243Z,21.40
2019-06-08T11:20:30.641Z,21.40
2019-06-08T11:23:00.722Z,21.00
2019-06-08T11:25:30.235Z,20.80
2019-06-08T11:27:59.901Z,20.70
2019-06-08T11:30:30.562Z,20.30
2019-06-08T11:32:59.961Z,19.90
2019-06-08T11:35:28.820Z,19.30
2019-06-08T11:37:58.559Z,19.30
2019-06-08T11:40:27.891Z,19.60
2019-06-08T11:42:58.550Z,20.20
2019-06-08T11:45:26.884Z,20.40
2019-06-08T11:47:58.199Z,20.20
2019-06-08T11:50:34.203Z,20.20
2019-06-08T11:53:04.028Z,20.40
2019-06-08T11:55:38.355Z,20.60
2019-06-08T11:58:09.795Z,20.60
2019-06-08T12:00:48.906Z,20.80
2019-06-08T12:03:17.438Z,21.00
2019-06-08T12:05:47.756Z,21.00
2019-06-08T12:08:17.691Z,21.50
2019-06-08T12:10:49.105Z,21.90
2019-06-08T12:13:18.263Z,21.90
2019-06-08T12:15:48.795Z,21.40
2019-06-08T12:18:18.354Z,21.40
2019-06-08T12:20:48.876Z,21.30
2019-06-08T12:23:18.023Z,21.50
2019-06-08T12:25:47.118Z,21.60
2019-06-08T12:28:17.781Z,21.70
2019-06-08T12:30:47.923Z,21.20
2019-06-08T12:33:18.640Z,20.90
2019-06-08T12:35:47.685Z,20.70
2019-06-08T12:38:18.944Z,20.80
2019-06-08T12:40:48.591Z,20.90
2019-06-08T12:43:18.978Z,21.10
2019-06-08T12:45:47.888Z,21.40
2019-06-08T12:48:22.418Z,21.50
2019-06-08T12:50:47.997Z,21.50
2019-06-08T12:53:21.258Z,21.60
2019-06-08T12:55:47.762Z,21.40
2019-06-08T12:58:20.000Z,21.30
2019-06-08T13:00:48.356Z,21.40
2019-06-08T13:03:18.636Z,21.40
2019-06-08T13:05:47.482Z,21.30
2019-06-08T13:08:20.068Z,21.40
2019-06-08T13:10:48.191Z,21.50
2019-06-08T13:13:23.533Z,21.40
2019-06-08T13:15:48.400Z,21.00
2019-06-08T13:18:19.809Z,21.10
2019-06-08T13:20:51.443Z,21.60
2019-06-08T13:23:19.953Z,22.10
2019-06-08T13:25:48.497Z,22.20
2019-06-08T13:28:23.577Z,22.40
2019-06-08T13:30:47.870Z,22.30
2019-06-08T13:33:16.726Z,22.00
2019-06-08T13:35:47.853Z,22.30
2019-06-08T13:38:17.338Z,22.40
2019-06-08T13:40:48.424Z,22.20
2019-06-08T13:43:19.573Z,21.80
2019-06-08T13:45:48.587Z,21.30
2019-06-08T13:48:19.028Z,21.10
2019-06-08T13:50:52.148Z,21.10
2019-06-08T13:53:26.734Z,21.10
2019-06-08T13:55:56.402Z,21.30
2019-06-08T13:58:26.548Z,21.00
2019-06-08T14:00:51.378Z,20.80
2019-06-08T14:03:21.354Z,20.80
2019-06-08T14:05:50.747Z,20.70
2019-06-08T14:08:21.258Z,20.60
2019-06-08T14:10:49.734Z,20.70
2019-06-08T14:13:22.434Z,20.90
2019-06-08T14:15:49.073Z,20.90
2019-06-08T14:18:21.348Z,20.90
2019-06-08T14:20:48.501Z,21.20
2019-06-08T14:23:19.686Z,21.40
2019-06-08T14:25:53.916Z,21.40
2019-06-08T14:28:19.788Z,21.40
2019-06-08T14:30:48.374Z,21.60
2019-06-08T14:33:23.002Z,21.90
2019-06-08T14:35:47.406Z,22.00
2019-06-08T14:38:19.440Z,22.10
2019-06-08T14:40:47.527Z,22.10
2019-06-08T14:43:17.627Z,21.80
2019-06-08T14:45:46.831Z,21.60
2019-06-08T14:48:15.911Z,21.40
2019-06-08T14:50:45.043Z,21.20
2019-06-08T14:53:14.968Z,21.10
2019-06-08T14:55:43.619Z,21.30
2019-06-08T14:58:12.492Z,21.20
2019-06-08T15:00:41.135Z,21.30
2019-06-08T15:03:10.181Z,21.10
2019-06-08T15:05:38.740Z,21.20
2019-06-08T15:08:08.376Z,21.40
2019-06-08T15:10:38.443Z,21.30
2019-06-08T15:13:07.869Z,21.10
2019-06-08T15:15:38.066Z,21.00
2019-06-08T15:18:08.441Z,21.10
2019-06-08T15:20:37.962Z,21.10
2019-06-08T15:23:08.194Z,21.20
2019-06-08T15:25:38.653Z,21.10
2019-06-08T15:28:08.234Z,20.90
2019-06-08T15:30:38.057Z,21.10
2019-06-08T15:33:06.831Z,21.50
2019-06-08T15:35:37.744Z,21.70
2019-06-08T15:38:08.164Z,21.80
2019-06-08T15:40:37.909Z,21.50
2019-06-08T15:43:08.428Z,21.30
2019-06-08T15:45:36.559Z,21.20
2019-06-08T15:48:07.776Z,21.40
2019-06-08T15:50:37.698Z,21.40
2019-06-08T15:53:08.048Z,21.10
2019-06-08T15:55:37.969Z,20.80
2019-06-08T15:58:09.024Z,20.70
2019-06-08T16:00:38.091Z,20.90
2019-06-08T16:03:07.083Z,21.00
2019-06-08T16:05:36.075Z,21.10
2019-06-08T16:08:04.798Z,21.10
2019-06-08T16:10:34.331Z,21.30
2019-06-08T16:13:02.983Z,21.40
2019-06-08T16:15:31.567Z,21.50
2019-06-08T16:18:00.131Z,21.10
2019-06-08T16:20:29.540Z,21.10
2019-06-08T16:22:58.274Z,20.90
2019-06-08T16:25:27.800Z,20.90
2019-06-08T16:27:56.395Z,20.90
2019-06-08T16:30:25.014Z,20.70
2019-06-08T16:32:53.608Z,20.40
2019-06-08T16:35:22.355Z,20.30
2019-06-08T16:37:51.026Z,20.20
2019-06-08T16:40:21.118Z,20.10
2019-06-08T16:42:50.144Z,20.00
2019-06-08T16:45:18.869Z,19.70
2019-06-08T16:47:47.524Z,19.50
2019-06-08T16:50:24.592Z,19.50
2019-06-08T16:52:46.629Z,19.50
2019-06-08T16:55:15.422Z,19.60
2019-06-08T16:57:44.408Z,19.60
2019-06-08T17:02:43.770Z,19.60
2019-06-08T17:05:12.462Z,19.60
2019-06-08T17:07:41.394Z,19.60
2019-06-08T17:10:10.390Z,19.70
2019-06-08T17:12:39.192Z,19.70
2019-06-08T17:15:08.107Z,19.60
2019-06-08T17:17:36.723Z,19.60
2019-06-08T17:20:07.063Z,19.60
2019-06-08T17:22:36.800Z,19.50
2019-06-08T17:25:09.047Z,19.40
2019-06-08T17:27:38.963Z,19.40
2019-06-08T17:30:09.431Z,19.40
2019-06-08T17:32:38.619Z,19.30
2019-06-08T17:35:09.117Z,19.30
2019-06-08T17:37:38.098Z,19.20
2019-06-08T17:40:07.194Z,19.10
2019-06-08T17:42:35.928Z,19.00
2019-06-08T17:45:07.463Z,18.90
2019-06-08T17:47:36.446Z,18.90
2019-06-08T17:50:06.939Z,18.90
2019-06-08T17:52:36.923Z,18.90
2019-06-08T17:55:07.482Z,18.80
2019-06-08T17:57:44.770Z,18.80
2019-06-08T18:00:07.847Z,18.80
2019-06-08T18:02:39.933Z,18.90
2019-06-08T18:05:07.784Z,18.90
2019-06-08T18:07:38.686Z,18.80
2019-06-08T18:10:07.810Z,18.80
2019-06-08T18:12:40.825Z,18.90
2019-06-08T18:15:07.999Z,18.90
2019-06-08T18:17:40.768Z,18.80
2019-06-08T18:20:11.225Z,18.90
2019-06-08T18:22:42.861Z,18.80
2019-06-08T18:25:10.315Z,18.80
2019-06-08T18:27:40.843Z,18.80
2019-06-08T18:30:11.888Z,18.70
2019-06-08T18:32:42.482Z,18.70
2019-06-08T18:35:11.731Z,18.60
2019-06-08T18:37:41.390Z,18.60
2019-06-08T18:40:12.702Z,18.60
2019-06-08T18:42:42.609Z,18.60
2019-06-08T18:45:12.655Z,18.60
2019-06-08T18:47:42.390Z,18.50
2019-06-08T18:50:13.199Z,18.40
2019-06-08T18:52:44.759Z,18.40
2019-06-08T18:55:13.529Z,18.30
2019-06-08T18:57:42.751Z,18.20
2019-06-08T19:00:12.953Z,18.00
2019-06-08T19:02:44.699Z,18.00
2019-06-08T19:05:12.578Z,17.90
2019-06-08T19:07:43.243Z,17.90
2019-06-08T19:10:15.490Z,17.80
2019-06-08T19:12:44.787Z,17.70
2019-06-08T19:15:17.916Z,17.70
2019-06-08T19:17:53.779Z,17.60
2019-06-08T19:20:17.363Z,17.50
2019-06-08T19:22:51.252Z,17.50
2019-06-08T19:25:17.576Z,17.40
2019-06-08T19:27:51.838Z,17.30
2019-06-08T19:30:20.122Z,17.30
2019-06-08T19:32:51.413Z,17.10
2019-06-08T19:35:18.384Z,17.10
2019-06-08T19:37:53.278Z,16.90
2019-06-08T19:40:17.741Z,16.90
2019-06-08T19:42:55.429Z,16.70
2019-06-08T19:45:18.176Z,16.60
2019-06-08T19:47:46.802Z,16.30
2019-06-08T19:50:17.236Z,16.20
2019-06-08T19:52:51.637Z,16.00
2019-06-08T19:55:18.095Z,15.90
2019-06-08T19:57:48.903Z,15.80
2019-06-08T20:00:17.990Z,15.70
2019-06-08T20:02:47.799Z,15.60
2019-06-08T20:05:17.558Z,15.40
2019-06-08T20:07:47.026Z,15.30
2019-06-08T20:10:17.634Z,15.30
2019-06-08T20:12:48.369Z,15.20
2019-06-08T20:15:18.477Z,15.20
2019-06-08T20:17:48.930Z,15.00
2019-06-08T20:20:18.350Z,14.90
2019-06-08T20:22:50.316Z,14.80
2019-06-08T20:25:17.956Z,14.80
2019-06-08T20:27:49.885Z,14.70
2019-06-08T20:30:18.139Z,14.70
2019-06-08T20:32:49.509Z,14.60
2019-06-08T20:35:17.478Z,14.50
2019-06-08T20:37:46.223Z,14.40
2019-06-08T20:40:15.039Z,14.40
2019-06-08T20:42:44.183Z,14.20
2019-06-08T20:45:13.314Z,14.10
2019-06-08T20:47:42.399Z,14.00
2019-06-08T20:50:11.410Z,13.90
2019-06-08T20:52:40.252Z,13.90
2019-06-08T20:55:09.289Z,13.90
2019-06-08T20:57:38.310Z,13.80
2019-06-08T21:00:11.701Z,13.80
2019-06-08T21:02:39.174Z,13.70
2019-06-08T21:05:08.345Z,13.60
2019-06-08T21:07:37.403Z,13.60
2019-06-08T21:10:08.572Z,13.50
2019-06-08T21:12:37.980Z,13.40
2019-06-08T21:15:07.818Z,13.30
2019-06-08T21:17:38.416Z,13.20
2019-06-08T21:20:08.776Z,13.10
2019-06-08T21:22:37.378Z,13.00
2019-06-08T21:25:25.307Z,13.00
2019-06-08T21:27:54.212Z,12.90
2019-06-08T21:30:24.777Z,12.80
2019-06-08T21:32:56.103Z,12.70
2019-06-08T21:35:23.934Z,12.60
2019-06-08T21:37:53.427Z,12.50
2019-06-08T21:40:22.833Z,12.50
2019-06-08T21:42:53.899Z,12.40
2019-06-08T21:45:22.186Z,12.30
2019-06-08T21:47:51.888Z,12.20
2019-06-08T21:50:21.972Z,12.20
2019-06-08T21:52:51.915Z,12.10
2019-06-08T21:55:20.936Z,12.10
2019-06-08T21:57:52.269Z,12.10
2019-06-08T22:00:38.832Z,12.00
2019-06-08T22:02:53.504Z,12.00
2019-06-08T22:05:22.352Z,12.00
2019-06-08T22:07:51.937Z,12.00
2019-06-08T22:10:20.490Z,12.00
2019-06-08T22:12:51.796Z,12.10
2019-06-08T22:15:19.598Z,12.00
2019-06-08T22:17:48.354Z,12.00
2019-06-08T22:20:18.705Z,11.80
2019-06-08T22:22:47.707Z,11.80
2019-06-08T22:25:17.502Z,11.80
2019-06-08T22:27:46.711Z,11.80
2019-06-08T22:30:32.391Z,11.70
2019-06-08T22:32:47.600Z,11.60
2019-06-08T22:35:16.315Z,11.60
2019-06-08T22:37:44.968Z,11.50
2019-06-08T22:40:17.539Z,11.50
2019-06-08T22:42:47.906Z,11.50
2019-06-08T22:45:17.631Z,11.50
2019-06-08T22:47:47.752Z,11.40
2019-06-08T22:50:18.573Z,11.30
2019-06-08T22:52:47.810Z,11.20
2019-06-08T22:55:18.578Z,11.20
2019-06-08T22:57:47.912Z,11.20
2019-06-08T23:00:20.689Z,11.20
2019-06-08T23:02:48.672Z,11.20
2019-06-08T23:05:18.607Z,11.20
2019-06-08T23:07:48.797Z,11.10
2019-06-08T23:10:17.959Z,11.10
2019-06-08T23:12:47.316Z,11.10
2019-06-08T23:15:18.318Z,11.10
2019-06-08T23:17:47.916Z,11.10
2019-06-08T23:20:18.610Z,11.00
2019-06-08T23:22:47.583Z,10.90
2019-06-08T23:25:18.194Z,10.90
2019-06-08T23:27:48.398Z,10.90
2019-06-08T23:30:18.460Z,10.90
2019-06-08T23:32:47.959Z,10.80
2019-06-08T23:35:18.217Z,10.70
2019-06-08T23:37:47.775Z,10.60
2019-06-08T23:40:17.924Z,10.60
2019-06-08T23:42:47.754Z,10.50
2019-06-08T23:45:17.695Z,10.50
2019-06-08T23:47:48.026Z,10.50
2019-06-08T23:50:17.917Z,10.50
2019-06-08T23:52:47.785Z,10.50
2019-06-08T23:55:18.150Z,10.50
2019-06-08T23:57:46.943Z,10.40
